Time;durP1;ratioP1;P1;durP2;ratioP2;P2;SDS_P1;SDS_P2;PMS_P1;PMS_P2;Temp;Humidity;BMP_temperature;BMP_pressure;BME280_temperature;BME280_humidity;BME280_pressure;Samples;Min_cycle;Max_cycle;Signal;HPM_P1;HPM_P2
2021/08/11 00:01:02;;;;;;;2.40;1.55;;;23.20;94.10;;;;;;4196472;28;20394;-74
2021/08/11 00:03:05;;;;;;;3.28;1.85;;;23.10;94.10;;;;;;4196764;28;20056;-72
2021/08/11 00:05:09;;;;;;;2.90;1.95;;;23.00;94.50;;;;;;4196077;28;20064;-72
2021/08/11 00:07:12;;;;;;;2.50;1.93;;;23.00;94.40;;;;;;4196153;28;20491;-73
2021/08/11 00:09:15;;;;;;;4.05;1.85;;;23.00;94.40;;;;;;4196260;28;20056;-74
2021/08/11 00:11:18;;;;;;;2.40;1.67;;;23.00;94.60;;;;;;4196529;28;20048;-73
2021/08/11 00:13:23;;;;;;;3.00;1.70;;;23.00;94.80;;;;;;4196180;28;20053;-74
2021/08/11 00:15:26;;;;;;;3.53;1.73;;;23.00;94.50;;;;;;4196499;28;20052;-72
2021/08/11 00:17:29;;;;;;;5.55;2.10;;;23.00;94.30;;;;;;4196277;28;20059;-72
2021/08/11 00:19:32;;;;;;;4.93;2.22;;;23.00;94.40;;;;;;4195939;28;20488;-73
2021/08/11 00:21:35;;;;;;;4.53;2.22;;;23.00;94.50;;;;;;4195987;28;20060;-72
2021/08/11 00:23:38;;;;;;;2.22;1.70;;;23.00;94.30;;;;;;4196816;28;20048;-73
2021/08/11 00:25:41;;;;;;;5.63;1.70;;;23.20;93.90;;;;;;4196721;28;20106;-72
2021/08/11 00:27:44;;;;;;;2.88;1.90;;;23.20;93.60;;;;;;4196762;28;20048;-72
2021/08/11 00:29:48;;;;;;;2.10;1.90;;;23.30;93.90;;;;;;4196765;28;20052;-72
2021/08/11 00:31:51;;;;;;;3.10;2.10;;;23.20;94.00;;;;;;4195900;28;20064;-76
2021/08/11 00:33:54;;;;;;;2.53;1.80;;;23.20;93.90;;;;;;4195900;28;20113;-75
2021/08/11 00:35:57;;;;;;;3.30;1.85;;;23.20;93.80;;;;;;4195876;28;20055;-73
2021/08/11 00:38:00;;;;;;;3.40;2.03;;;23.20;93.60;;;;;;4195744;28;20491;-73
2021/08/11 00:40:05;;;;;;;4.13;1.80;;;23.20;94.20;;;;;;4195587;28;20056;-72
2021/08/11 00:42:08;;;;;;;3.28;2.00;;;23.00;94.60;;;;;;4195591;28;20110;-73
2021/08/11 00:44:11;;;;;;;4.75;1.60;;;23.00;94.60;;;;;;4195657;28;20098;-72
2021/08/11 00:46:15;;;;;;;2.55;1.50;;;23.10;94.10;;;;;;4195901;28;20048;-72
2021/08/11 00:48:20;;;;;;;3.95;1.85;;;23.10;93.90;;;;;;4194279;28;20390;-72
2021/08/11 00:50:23;;;;;;;2.58;1.85;;;23.10;93.80;;;;;;4195746;28;20056;-72
2021/08/11 00:52:26;;;;;;;2.58;1.52;;;23.10;93.80;;;;;;4195514;28;20110;-72
2021/08/11 00:54:30;;;;;;;2.47;1.80;;;23.10;94.30;;;;;;4195523;28;20064;-72
2021/08/11 00:56:34;;;;;;;2.08;1.67;;;23.10;93.90;;;;;;4195873;28;20052;-72
2021/08/11 00:58:38;;;;;;;2.72;1.40;;;23.00;94.20;;;;;;4195390;28;20053;-72
2021/08/11 01:00:44;;;;;;;2.78;1.50;;;23.10;93.60;;;;;;4195678;28;20058;-76
2021/08/11 01:02:51;;;;;;;1.83;1.33;;;23.10;93.50;;;;;;4195467;28;20056;-73
2021/08/11 01:04:58;;;;;;;2.42;1.45;;;23.20;93.50;;;;;;4195213;28;20060;-72
2021/08/11 01:07:03;;;;;;;2.15;1.58;;;23.10;93.30;;;;;;4195573;28;20053;-73
2021/08/11 01:09:06;;;;;;;2.42;1.40;;;23.10;93.30;;;;;;4195539;28;20189;-72
2021/08/11 01:11:10;;;;;;;2.45;1.55;;;23.20;93.10;;;;;;4195165;28;20493;-72
2021/08/11 01:13:14;;;;;;;2.15;1.42;;;23.20;92.80;;;;;;4193893;28;20052;-72
2021/08/11 01:15:17;;;;;;;1.50;1.20;;;23.20;93.00;;;;;;4195364;28;20409;-72
2021/08/11 01:17:22;;;;;;;1.90;1.70;;;23.20;92.80;;;;;;4195412;28;20060;-72
2021/08/11 01:19:27;;;;;;;1.67;1.30;;;23.20;92.80;;;;;;4195688;28;20497;-72
2021/08/11 01:21:34;;;;;;;1.65;1.30;;;23.20;92.70;;;;;;4195475;28;20101;-71
2021/08/11 01:23:43;;;;;;;3.50;1.50;;;23.20;92.80;;;;;;4195730;28;20053;-72
2021/08/11 01:25:51;;;;;;;1.88;1.50;;;23.20;92.70;;;;;;4196028;28;20098;-72
2021/08/11 01:28:30;;;;;;;3.20;1.80;;;23.10;92.60;;;;;;4195319;28;20056;-74
2021/08/11 01:30:41;;;;;;;3.70;1.65;;;23.10;92.50;;;;;;4190363;28;20048;-72
2021/08/11 01:33:13;;;;;;;1.83;1.40;;;23.00;92.70;;;;;;4195337;28;20052;-72
2021/08/11 01:35:18;;;;;;;1.98;1.40;;;23.00;92.60;;;;;;4195452;28;20401;-73
2021/08/11 01:37:29;;;;;;;2.10;1.40;;;22.90;92.60;;;;;;4194982;28;20045;-74
2021/08/11 01:39:35;;;;;;;2.13;1.67;;;22.90;92.50;;;;;;4195305;28;20201;-72
2021/08/11 01:41:47;;;;;;;2.75;1.85;;;22.90;92.60;;;;;;4195212;28;20052;-73
2021/08/11 01:43:51;;;;;;;2.15;1.35;;;22.90;92.70;;;;;;4195340;28;20052;-72
2021/08/11 01:45:56;;;;;;;1.88;1.40;;;22.90;92.60;;;;;;4195207;28;20048;-73
2021/08/11 01:48:03;;;;;;;2.22;1.63;;;22.80;92.60;;;;;;4195473;28;20072;-75
2021/08/11 01:50:12;;;;;;;2.47;1.50;;;22.80;92.60;;;;;;4195514;28;20408;-75
2021/08/11 01:52:16;;;;;;;2.10;1.50;;;22.80;92.70;;;;;;4195614;28;20098;-76
2021/08/11 01:54:19;;;;;;;2.13;1.60;;;22.70;92.60;;;;;;4194963;28;20565;-72
2021/08/11 01:56:22;;;;;;;3.13;1.75;;;22.70;92.60;;;;;;4194979;28;20052;-76
2021/08/11 01:58:28;;;;;;;2.40;1.42;;;22.70;92.60;;;;;;4195009;28;20577;-72
2021/08/11 02:00:32;;;;;;;3.17;1.95;;;22.60;92.80;;;;;;4195051;28;20056;-73
2021/08/11 02:02:37;;;;;;;2.58;1.60;;;22.60;92.80;;;;;;4194872;28;20584;-72
2021/08/11 02:04:42;;;;;;;1.73;1.50;;;22.60;92.50;;;;;;4194823;28;20052;-73
2021/08/11 02:06:47;;;;;;;1.47;1.30;;;22.60;92.50;;;;;;4195049;28;20178;-72
2021/08/11 02:08:50;;;;;;;2.50;1.67;;;22.60;92.60;;;;;;4193437;28;20508;-74
2021/08/11 02:10:55;;;;;;;1.70;1.50;;;22.70;92.60;;;;;;4195083;28;20106;-73
2021/08/11 02:13:00;;;;;;;2.95;1.73;;;22.60;92.60;;;;;;4194799;28;20118;-73
2021/08/11 02:15:05;;;;;;;2.03;1.48;;;22.60;92.60;;;;;;4195165;28;20045;-72
2021/08/11 02:17:08;;;;;;;3.40;1.45;;;22.50;92.50;;;;;;4195140;28;20493;-72
2021/08/11 02:19:12;;;;;;;2.55;1.77;;;22.50;92.60;;;;;;4195144;28;20106;-73
2021/08/11 02:21:15;;;;;;;2.65;1.73;;;22.50;92.70;;;;;;4194861;28;20056;-74
2021/08/11 02:23:19;;;;;;;3.08;1.80;;;22.50;92.60;;;;;;4194817;28;20482;-75
2021/08/11 02:25:23;;;;;;;3.92;1.60;;;22.40;92.70;;;;;;4194786;28;20053;-75
2021/08/11 02:27:29;;;;;;;2.90;1.50;;;22.40;92.70;;;;;;4194952;28;20499;-74
2021/08/11 02:29:41;;;;;;;3.75;1.52;;;22.40;92.80;;;;;;4195254;28;20057;-77
2021/08/11 02:31:56;;;;;;;2.55;1.55;;;22.30;92.90;;;;;;4195055;28;20542;-76
2021/08/11 02:34:06;;;;;;;3.55;1.60;;;22.30;93.00;;;;;;4195214;28;20114;-74
2021/08/11 02:36:13;;;;;;;2.58;1.85;;;22.30;92.70;;;;;;4194438;28;20086;-73
2021/08/11 02:38:23;;;;;;;1.88;1.65;;;22.30;92.70;;;;;;4194904;28;20405;-72
2021/08/11 02:40:35;;;;;;;1.90;1.75;;;22.30;92.80;;;;;;4194632;28;20053;-73
2021/08/11 02:42:41;;;;;;;2.75;1.90;;;22.30;92.90;;;;;;4194593;28;20161;-73
2021/08/11 02:44:49;;;;;;;2.55;1.60;;;22.20;92.90;;;;;;4197717;28;20053;-73
2021/08/11 02:46:54;;;;;;;2.70;1.80;;;22.30;92.80;;;;;;4197491;28;20060;-73
2021/08/11 02:48:59;;;;;;;;;;;22.20;92.80;;;;;;4198142;28;20052;-73
2021/08/11 02:51:04;;;;;;;1.90;1.70;;;22.20;92.90;;;;;;4197580;28;19920;-75
2021/08/11 02:53:08;;;;;;;4.85;2.10;;;22.20;93.00;;;;;;4197453;28;20060;-76
2021/08/11 02:55:14;;;;;;;7.78;1.83;;;22.10;93.90;;;;;;4197648;28;20068;-73
2021/08/11 02:57:18;;;;;;;5.78;2.25;;;22.10;93.80;;;;;;4197360;28;20048;-74
2021/08/11 02:59:23;;;;;;;2.85;2.03;;;22.00;94.60;;;;;;4197316;28;20060;-75
2021/08/11 03:01:27;;;;;;;;;;;21.90;95.20;;;;;;4198039;28;20696;-72
2021/08/11 03:03:30;;;;;;;3.42;1.83;;;21.70;95.90;;;;;;4197435;28;19924;-75
2021/08/11 03:05:34;;;;;;;2.88;1.90;;;21.80;95.00;;;;;;4198284;28;20134;-74
2021/08/11 03:07:38;;;;;;;4.88;2.10;;;21.80;94.90;;;;;;4197325;28;20052;-73
2021/08/11 03:09:41;;;;;;;3.55;1.90;;;21.90;94.80;;;;;;4197435;28;20087;-73
2021/08/11 03:11:45;;;;;;;5.32;1.92;;;22.00;94.70;;;;;;4197857;28;20094;-76
2021/08/11 03:13:49;;;;;;;3.03;1.90;;;22.00;94.90;;;;;;4197343;28;20060;-74
2021/08/11 03:15:53;;;;;;;5.05;2.10;;;21.80;95.30;;;;;;4196972;28;20130;-75
2021/08/11 03:17:56;;;;;;;4.03;1.80;;;21.90;95.10;;;;;;4197246;28;20130;-75
2021/08/11 03:20:00;;;;;;;1.63;1.48;;;22.00;94.60;;;;;;4197133;28;20048;-77
2021/08/11 03:22:04;;;;;;;2.35;1.65;;;22.10;94.70;;;;;;4195743;28;20057;-72
2021/08/11 03:24:07;;;;;;;2.08;1.77;;;22.10;94.40;;;;;;4197055;28;20061;-74
2021/08/11 03:26:10;;;;;;;2.92;2.05;;;22.10;94.40;;;;;;4197234;28;20587;-75
2021/08/11 03:28:15;;;;;;;3.08;1.90;;;22.20;94.20;;;;;;4196984;28;20053;-76
2021/08/11 03:30:18;;;;;;;5.53;1.92;;;22.20;94.20;;;;;;4197116;28;20049;-77
2021/08/11 03:32:21;;;;;;;2.00;1.80;;;22.20;94.30;;;;;;4197035;28;20427;-74
2021/08/11 03:34:24;;;;;;;4.30;2.20;;;22.20;94.20;;;;;;4197238;28;20064;-75
2021/08/11 03:36:30;;;;;;;4.13;2.30;;;22.20;94.70;;;;;;4196891;28;20048;-74
2021/08/11 03:38:33;;;;;;;4.07;2.05;;;22.10;95.40;;;;;;4196690;28;20053;-77
2021/08/11 03:40:36;;;;;;;2.08;1.83;;;22.10;95.40;;;;;;4196545;28;20128;-74
2021/08/11 03:42:39;;;;;;;3.50;1.77;;;22.10;95.30;;;;;;4196515;28;20056;-75
2021/08/11 03:44:44;;;;;;;3.15;2.15;;;22.10;94.90;;;;;;4195409;28;20053;-74
2021/08/11 03:46:46;;;;;;;3.47;1.90;;;22.20;94.80;;;;;;4197062;28;20055;-75
2021/08/11 03:48:49;;;;;;;2.35;2.08;;;22.20;94.90;;;;;;4195172;28;20052;-78
2021/08/11 03:50:52;;;;;;;5.07;2.40;;;22.20;94.90;;;;;;4196862;28;20447;-76
2021/08/11 03:52:55;;;;;;;4.72;2.40;;;22.30;95.00;;;;;;4196625;28;20110;-75
2021/08/11 03:54:58;;;;;;;6.95;2.53;;;22.20;95.40;;;;;;4196913;28;20595;-75
2021/08/11 03:57:02;;;;;;;6.47;3.30;;;22.10;96.20;;;;;;4196867;28;20053;-74
2021/08/11 03:59:05;;;;;;;7.65;2.60;;;21.90;96.40;;;;;;4196351;28;20059;-74
2021/08/11 04:01:09;;;;;;;9.95;2.50;;;22.00;96.30;;;;;;4195432;28;20057;-76
2021/08/11 04:03:13;;;;;;;3.58;2.17;;;22.00;96.00;;;;;;4195052;28;20052;-74
2021/08/11 04:05:16;;;;;;;4.55;2.38;;;22.10;96.10;;;;;;4196478;28;20061;-74
2021/08/11 04:07:19;;;;;;;4.63;1.95;;;22.10;95.80;;;;;;4196403;28;20102;-75
2021/08/11 04:09:22;;;;;;;2.47;2.05;;;22.10;95.20;;;;;;4196434;28;20049;-74
2021/08/11 04:11:25;;;;;;;16.77;2.80;;;22.30;95.30;;;;;;4196467;28;20413;-74
2021/08/11 04:13:28;;;;;;;7.50;3.08;;;22.20;95.50;;;;;;4196301;28;20110;-74
2021/08/11 04:15:31;;;;;;;7.38;2.63;;;22.10;96.00;;;;;;4196337;28;20513;-74
2021/08/11 04:17:35;;;;;;;8.10;2.85;;;22.20;95.60;;;;;;4196222;28;20072;-75
2021/08/11 04:19:38;;;;;;;5.75;1.95;;;22.10;95.90;;;;;;4196428;28;20056;-74
2021/08/11 04:21:41;;;;;;;10.15;3.13;;;22.10;95.50;;;;;;4194942;28;20056;-78
2021/08/11 04:23:44;;;;;;;9.55;2.88;;;22.10;95.30;;;;;;4196208;28;20401;-77
2021/08/11 04:25:47;;;;;;;12.32;2.92;;;22.20;95.50;;;;;;4196233;28;20114;-76
2021/08/11 04:27:50;;;;;;;14.30;3.20;;;22.20;95.60;;;;;;4195952;28;20471;-76
2021/08/11 04:29:53;;;;;;;11.00;3.13;;;22.00;96.20;;;;;;4196372;28;20049;-74
2021/08/11 04:31:56;;;;;;;8.63;2.50;;;22.00;96.00;;;;;;4195853;28;20053;-74
2021/08/11 04:34:00;;;;;;;5.90;2.30;;;22.00;95.60;;;;;;4195865;28;20504;-74
2021/08/11 04:36:04;;;;;;;8.05;3.13;;;22.10;95.40;;;;;;4195723;28;20452;-73
2021/08/11 04:38:07;;;;;;;10.50;3.10;;;22.10;95.50;;;;;;4195979;28;20057;-75
2021/08/11 04:40:11;;;;;;;6.45;2.45;;;22.10;95.20;;;;;;4196096;28;20056;-74
2021/08/11 04:42:14;;;;;;;5.60;2.55;;;22.10;95.20;;;;;;4195989;28;20129;-73
2021/08/11 04:44:17;;;;;;;14.38;2.90;;;22.10;95.30;;;;;;4195555;28;20409;-74
2021/08/11 04:46:20;;;;;;;6.47;2.60;;;22.10;95.60;;;;;;4195684;28;20386;-73
2021/08/11 04:48:23;;;;;;;6.85;2.30;;;22.00;96.50;;;;;;4195641;28;20626;-74
2021/08/11 04:50:28;;;;;;;3.85;2.22;;;21.90;96.20;;;;;;4195817;28;20053;-76
2021/08/11 04:52:31;;;;;;;8.63;2.75;;;22.00;95.80;;;;;;4196149;28;20082;-73
2021/08/11 04:54:34;;;;;;;5.32;2.88;;;22.10;96.30;;;;;;4195863;28;20056;-73
2021/08/11 04:56:37;;;;;;;3.72;2.67;;;21.80;96.60;;;;;;4195974;28;20055;-73
2021/08/11 04:58:40;;;;;;;12.15;2.83;;;21.70;96.90;;;;;;4195382;28;20044;-74
2021/08/11 05:00:43;;;;;;;8.93;2.88;;;21.80;96.60;;;;;;4195503;28;20432;-75
2021/08/11 05:02:46;;;;;;;9.55;3.03;;;21.80;96.90;;;;;;4195838;28;20048;-73
2021/08/11 05:04:49;;;;;;;13.10;2.78;;;21.70;96.80;;;;;;4195319;28;20056;-74
2021/08/11 05:06:54;;;;;;;7.97;2.53;;;21.70;96.90;;;;;;4195299;28;20089;-73
2021/08/11 05:08:57;;;;;;;11.55;2.90;;;21.80;96.30;;;;;;4195193;28;20048;-74
2021/08/11 05:11:00;;;;;;;7.40;2.72;;;21.80;96.60;;;;;;4195339;28;20053;-73
2021/08/11 05:13:03;;;;;;;15.40;2.78;;;21.80;96.10;;;;;;4195453;28;20098;-72
2021/08/11 05:15:06;;;;;;;7.15;2.90;;;21.90;96.20;;;;;;4195332;28;20060;-73
2021/08/11 05:17:10;;;;;;;12.05;3.13;;;22.00;96.10;;;;;;4195272;28;20214;-74
2021/08/11 05:19:13;;;;;;;9.32;3.28;;;21.90;96.60;;;;;;4195324;28;20060;-72
2021/08/11 05:21:16;;;;;;;9.95;3.20;;;21.90;96.60;;;;;;4195323;28;20064;-72
2021/08/11 05:23:20;;;;;;;10.20;3.28;;;21.90;96.40;;;;;;4195318;28;20056;-73
2021/08/11 05:25:23;;;;;;;8.57;3.67;;;21.90;96.60;;;;;;4195458;28;20052;-75
2021/08/11 05:27:27;;;;;;;14.13;3.17;;;21.90;97.00;;;;;;4195484;28;20048;-73
2021/08/11 05:29:32;;;;;;;6.47;2.40;;;21.60;97.70;;;;;;4195329;28;20466;-74
2021/08/11 05:31:34;;;;;;;8.02;2.65;;;21.60;97.80;;;;;;4195164;28;20257;-74
2021/08/11 05:33:37;;;;;;;8.85;2.25;;;21.50;97.90;;;;;;4195387;28;20049;-72
2021/08/11 05:35:40;;;;;;;5.38;2.30;;;21.50;97.90;;;;;;4195302;28;20500;-74
2021/08/11 05:37:46;;;;;;;15.55;2.20;;;21.60;97.70;;;;;;4195485;28;20480;-73
2021/08/11 05:39:51;;;;;;;5.38;2.42;;;21.50;98.00;;;;;;4193737;28;20052;-74
2021/08/11 05:41:54;;;;;;;11.57;2.40;;;21.70;97.50;;;;;;4195937;28;20063;-72
2021/08/11 05:43:57;;;;;;;7.18;2.30;;;21.60;97.60;;;;;;4195542;28;20048;-73
2021/08/11 05:46:00;;;;;;;7.22;2.30;;;21.60;98.10;;;;;;4195623;28;20059;-74
2021/08/11 05:48:04;;;;;;;3.65;2.05;;;21.50;97.90;;;;;;4195316;28;20053;-75
2021/08/11 05:50:09;;;;;;;10.55;2.10;;;21.60;97.60;;;;;;4195191;28;20118;-73
2021/08/11 05:52:12;;;;;;;6.13;1.67;;;21.70;97.50;;;;;;4194954;28;20536;-73
2021/08/11 05:54:15;;;;;;;4.25;1.77;;;21.60;97.80;;;;;;4195276;28;20091;-75
2021/08/11 05:56:20;;;;;;;7.82;2.10;;;21.60;97.70;;;;;;4195202;28;20056;-74
2021/08/11 05:58:23;;;;;;;;;;;21.70;97.60;;;;;;4195455;28;20056;-72
2021/08/11 06:00:26;;;;;;;10.27;2.17;;;21.80;97.30;;;;;;4195001;28;19920;-74
2021/08/11 06:02:29;;;;;;;12.38;1.70;;;21.70;97.40;;;;;;4194965;28;20635;-73
2021/08/11 06:04:32;;;;;;;4.93;2.20;;;21.60;97.60;;;;;;4194905;28;20064;-74
2021/08/11 06:06:35;;;;;;;5.32;1.80;;;21.60;97.80;;;;;;4194965;28;20063;-73
2021/08/11 06:08:38;;;;;;;13.07;2.20;;;21.70;97.70;;;;;;4195234;28;20056;-73
2021/08/11 06:10:41;;;;;;;13.05;2.20;;;21.70;97.60;;;;;;4195120;28;20048;-74
2021/08/11 06:12:47;;;;;;;5.43;1.80;;;21.80;97.70;;;;;;4193692;28;20060;-76
2021/08/11 06:14:52;;;;;;;3.80;1.83;;;21.90;97.40;;;;;;4194994;28;20072;-73
2021/08/11 06:16:55;;;;;;;5.60;2.00;;;21.80;97.70;;;;;;4195083;28;20114;-73
2021/08/11 06:18:58;;;;;;;2.88;1.90;;;21.90;97.60;;;;;;4196947;28;20409;-74
2021/08/11 06:21:02;;;;;;;6.38;2.42;;;22.00;97.30;;;;;;4198387;28;20049;-74
2021/08/11 06:23:05;;;;;;;4.63;1.85;;;22.00;97.30;;;;;;4198429;28;20086;-75
2021/08/11 06:25:09;;;;;;;6.68;2.28;;;22.00;97.30;;;;;;4198198;28;20072;-73
2021/08/11 06:27:12;;;;;;;9.95;2.50;;;21.90;97.50;;;;;;4198064;28;20052;-74
2021/08/11 06:29:17;;;;;;;14.93;3.50;;;22.00;97.50;;;;;;4197907;28;20109;-73
2021/08/11 06:31:23;;;;;;;32.33;3.35;;;22.10;97.50;;;;;;4198255;28;20056;-72
2021/08/11 06:33:26;;;;;;;12.02;2.80;;;22.10;97.50;;;;;;4198199;28;20109;-72
2021/08/11 06:35:29;;;;;;;8.23;2.20;;;22.10;97.10;;;;;;4197940;28;20130;-74
2021/08/11 06:37:32;;;;;;;10.32;2.60;;;22.20;97.00;;;;;;4197770;28;20098;-73
2021/08/11 06:39:35;;;;;;;8.18;2.72;;;22.30;96.90;;;;;;4197826;28;20060;-73
2021/08/11 06:41:38;;;;;;;6.85;3.00;;;22.30;97.00;;;;;;4197706;28;20055;-73
2021/08/11 06:43:41;;;;;;;16.05;3.03;;;22.30;96.90;;;;;;4197879;28;20048;-73
2021/08/11 06:45:46;;;;;;;16.77;2.53;;;22.20;97.30;;;;;;4197750;28;20397;-74
2021/08/11 06:47:51;;;;;;;8.63;3.08;;;22.10;97.40;;;;;;4197808;28;20049;-74
2021/08/11 06:49:54;;;;;;;20.48;3.50;;;22.20;97.10;;;;;;4197734;28;20539;-74
2021/08/11 06:51:57;;;;;;;9.77;3.22;;;22.30;97.00;;;;;;4197829;28;20110;-75
2021/08/11 06:54:00;;;;;;;10.07;3.05;;;22.30;97.10;;;;;;4197622;28;20048;-73
2021/08/11 06:56:03;;;;;;;9.27;3.08;;;22.40;97.00;;;;;;4197499;28;20471;-74
2021/08/11 06:58:06;;;;;;;14.93;3.47;;;22.50;96.70;;;;;;4197371;28;20056;-73
2021/08/11 07:00:10;;;;;;;14.38;3.35;;;22.70;96.50;;;;;;4197656;28;20048;-73
2021/08/11 07:02:15;;;;;;;10.13;3.30;;;22.70;96.40;;;;;;4197667;28;20045;-73
2021/08/11 07:04:18;;;;;;;11.30;3.50;;;22.80;96.30;;;;;;4197388;28;20531;-73
2021/08/11 07:06:21;;;;;;;12.23;2.78;;;22.80;96.30;;;;;;4197283;28;20110;-73
2021/08/11 07:08:24;;;;;;;9.18;2.65;;;22.80;96.10;;;;;;4195912;28;20057;-72
2021/08/11 07:10:27;;;;;;;6.25;2.35;;;22.80;96.10;;;;;;4197515;28;20114;-78
2021/08/11 07:12:30;;;;;;;7.15;2.33;;;22.90;96.10;;;;;;4197633;28;20053;-74
2021/08/11 07:14:33;;;;;;;8.50;2.58;;;22.60;96.60;;;;;;4197471;28;20053;-75
2021/08/11 07:16:37;;;;;;;9.20;2.92;;;22.60;96.50;;;;;;4197534;28;20060;-73
2021/08/11 07:18:41;;;;;;;5.88;3.00;;;22.80;96.30;;;;;;4197353;28;20052;-73
2021/08/11 07:20:45;;;;;;;6.68;2.95;;;22.90;96.10;;;;;;4197071;28;20056;-73
2021/08/11 07:22:49;;;;;;;13.75;2.97;;;22.90;96.00;;;;;;4197471;28;20467;-73
2021/08/11 07:24:52;;;;;;;8.40;2.50;;;23.00;95.90;;;;;;4197294;28;20125;-73
2021/08/11 07:26:55;;;;;;;10.02;3.00;;;23.00;95.90;;;;;;4197648;28;20049;-74
2021/08/11 07:28:58;;;;;;;11.88;2.50;;;23.10;95.80;;;;;;4196969;28;20053;-75
2021/08/11 07:31:01;;;;;;;5.60;2.95;;;23.20;95.70;;;;;;4197194;28;20057;-72
2021/08/11 07:33:07;;;;;;;13.13;3.15;;;23.40;95.40;;;;;;4196979;28;20057;-74
2021/08/11 07:35:13;;;;;;;14.90;3.53;;;23.40;95.30;;;;;;4196753;28;20087;-73
2021/08/11 07:37:16;;;;;;;6.45;2.30;;;23.30;95.00;;;;;;4196923;28;20763;-73
2021/08/11 07:39:19;;;;;;;5.13;2.67;;;23.20;95.20;;;;;;4197131;28;20464;-76
2021/08/11 07:41:22;;;;;;;5.63;2.45;;;23.30;95.60;;;;;;4196822;28;20049;-74
2021/08/11 07:43:25;;;;;;;6.43;2.70;;;23.40;95.40;;;;;;4196931;28;20048;-78
2021/08/11 07:45:30;;;;;;;5.32;2.65;;;23.40;95.30;;;;;;4196747;28;20125;-74
2021/08/11 07:47:33;;;;;;;5.45;3.05;;;23.30;95.30;;;;;;4196647;28;20626;-73
2021/08/11 07:49:37;;;;;;;11.60;2.70;;;23.10;95.40;;;;;;4196481;28;20052;-73
2021/08/11 07:51:42;;;;;;;5.15;2.78;;;23.20;95.50;;;;;;4196626;28;20049;-73
2021/08/11 07:53:45;;;;;;;5.03;2.22;;;23.30;95.30;;;;;;4196672;28;20082;-76
2021/08/11 07:55:48;;;;;;;11.70;2.88;;;23.30;95.50;;;;;;4196643;28;20126;-74
2021/08/11 07:57:51;;;;;;;5.47;2.90;;;23.40;95.40;;;;;;4196829;28;20118;-75
2021/08/11 07:59:54;;;;;;;4.07;2.13;;;23.60;95.10;;;;;;4196522;28;20700;-77
2021/08/11 08:01:57;;;;;;;4.72;2.00;;;23.80;94.80;;;;;;4196856;28;20175;-74
2021/08/11 08:04:00;;;;;;;9.48;2.25;;;23.80;94.00;;;;;;4196631;28;20045;-74
2021/08/11 08:06:04;;;;;;;3.38;1.90;;;23.70;94.40;;;;;;4196382;28;20590;-74
2021/08/11 08:08:08;;;;;;;6.18;1.80;;;23.90;94.10;;;;;;4196324;28;20052;-74
2021/08/11 08:10:13;;;;;;;3.15;1.77;;;23.90;94.00;;;;;;4194990;28;20114;-75
2021/08/11 08:12:16;;;;;;;;;;;23.90;93.30;;;;;;4197075;28;20053;-75
2021/08/11 08:14:19;;;;;;;5.80;1.80;;;24.00;93.60;;;;;;4196317;28;20410;-74
2021/08/11 08:16:22;;;;;;;6.10;2.15;;;23.90;92.70;;;;;;4196444;28;20052;-74
2021/08/11 08:18:26;;;;;;;9.57;2.72;;;23.90;92.50;;;;;;4196456;28;20053;-73
2021/08/11 08:20:30;;;;;;;6.75;2.65;;;23.90;92.20;;;;;;4196366;28;20053;-75
2021/08/11 08:22:33;;;;;;;7.22;2.70;;;23.80;92.50;;;;;;4196271;28;20052;-74
2021/08/11 08:24:38;;;;;;;6.88;2.40;;;23.80;91.80;;;;;;4196415;28;20557;-75
2021/08/11 08:26:43;;;;;;;4.38;2.30;;;23.80;91.40;;;;;;4196046;28;20056;-75
2021/08/11 08:28:48;;;;;;;3.50;2.40;;;23.80;91.80;;;;;;4196390;28;20056;-74
2021/08/11 08:30:51;;;;;;;9.85;2.53;;;23.80;91.40;;;;;;4196130;28;20048;-75
2021/08/11 08:32:54;;;;;;;3.17;2.55;;;24.00;91.40;;;;;;4195925;28;20106;-77
2021/08/11 08:34:57;;;;;;;5.50;2.53;;;23.90;90.30;;;;;;4196089;28;20068;-75
2021/08/11 08:37:00;;;;;;;5.30;2.85;;;24.00;90.80;;;;;;4195745;28;20060;-77
2021/08/11 08:39:03;;;;;;;6.35;3.10;;;24.00;90.00;;;;;;4195648;28;20414;-73
2021/08/11 08:41:10;;;;;;;11.63;3.03;;;24.10;90.30;;;;;;4194758;28;20048;-73
2021/08/11 08:43:15;;;;;;;9.52;3.25;;;24.10;88.40;;;;;;4195479;28;20056;-73
2021/08/11 08:45:18;;;;;;;5.55;2.88;;;24.10;90.10;;;;;;4195949;28;20577;-73
2021/08/11 08:47:22;;;;;;;12.98;3.58;;;24.30;90.10;;;;;;4195610;28;20052;-73
2021/08/11 08:49:27;;;;;;;5.10;2.60;;;24.30;89.90;;;;;;4195345;28;20074;-73
2021/08/11 08:51:30;;;;;;;9.80;2.70;;;24.40;87.90;;;;;;4193874;28;20114;-73
2021/08/11 08:53:34;;;;;;;3.58;2.58;;;24.40;87.90;;;;;;4195731;28;20129;-73
2021/08/11 08:55:38;;;;;;;3.97;2.67;;;24.60;88.90;;;;;;4195654;28;20064;-74
2021/08/11 08:57:43;;;;;;;4.80;2.95;;;24.70;89.60;;;;;;4195649;28;20057;-74
2021/08/11 08:59:46;;;;;;;8.52;3.25;;;24.80;89.10;;;;;;4195428;28;20048;-72
2021/08/11 09:01:48;;;;;;;13.05;3.67;;;24.80;88.10;;;;;;4195471;28;20616;-73
2021/08/11 09:03:52;;;;;;;7.15;3.78;;;24.60;85.30;;;;;;4195382;28;20052;-74
2021/08/11 09:05:55;;;;;;;9.13;2.85;;;24.40;86.70;;;;;;4195464;28;20056;-73
2021/08/11 09:07:58;;;;;;;5.90;3.45;;;24.30;87.30;;;;;;4195899;28;20048;-73
2021/08/11 09:10:15;;;;;;;6.22;3.15;;;24.30;88.70;;;;;;4195607;28;20049;-73
2021/08/11 09:12:45;;;;;;;7.05;3.15;;;24.60;89.10;;;;;;4195528;28;20056;-72
2021/08/11 09:14:49;;;;;;;8.15;3.38;;;24.70;88.10;;;;;;4195863;28;20130;-72
2021/08/11 09:16:56;;;;;;;11.02;3.20;;;24.80;86.40;;;;;;4195568;28;20056;-72
2021/08/11 09:18:59;;;;;;;8.95;3.30;;;24.70;87.40;;;;;;4195530;28;20056;-74
2021/08/11 09:21:10;;;;;;;6.60;3.10;;;24.70;86.70;;;;;;4195155;28;20147;-72
2021/08/11 09:23:15;;;;;;;11.48;3.42;;;24.70;86.70;;;;;;4195289;28;20126;-75
2021/08/11 09:25:19;;;;;;;9.57;3.08;;;24.70;87.20;;;;;;4195451;28;20451;-72
2021/08/11 09:27:24;;;;;;;8.27;3.70;;;24.60;86.90;;;;;;4195271;28;20056;-73
2021/08/11 09:29:29;;;;;;;8.93;3.33;;;24.60;87.80;;;;;;4195488;28;20053;-73
2021/08/11 09:31:32;;;;;;;8.23;3.25;;;24.70;88.20;;;;;;4193755;28;20114;-73
2021/08/11 09:33:35;;;;;;;6.90;2.88;;;24.90;88.80;;;;;;4195474;28;20063;-73
2021/08/11 09:35:38;;;;;;;5.70;2.85;;;25.00;88.00;;;;;;4195056;28;20045;-75
2021/08/11 09:37:43;;;;;;;11.75;3.75;;;25.00;87.40;;;;;;4195418;28;20052;-72
2021/08/11 09:39:46;;;;;;;;;;;25.20;87.40;;;;;;4196188;28;20048;-73
2021/08/11 09:42:01;;;;;;;7.15;3.63;;;25.10;86.90;;;;;;4193986;28;19990;-73
2021/08/11 09:44:06;;;;;;;11.10;3.47;;;25.10;86.90;;;;;;4195146;28;20631;-74
2021/08/11 09:46:11;;;;;;;6.90;3.63;;;25.00;86.50;;;;;;4195039;28;20099;-72
2021/08/11 09:48:15;;;;;;;;;;;25.00;86.60;;;;;;4195965;28;20122;-73
2021/08/11 09:50:18;;;;;;;6.88;2.95;;;25.10;87.70;;;;;;4194986;28;19950;-72
2021/08/11 09:52:21;;;;;;;9.10;4.10;;;25.20;88.20;;;;;;4196105;28;20052;-72
2021/08/11 09:54:25;;;;;;;7.78;3.80;;;25.10;87.20;;;;;;4198785;28;20075;-75
2021/08/11 09:56:32;;;;;;;6.80;3.28;;;25.10;86.70;;;;;;4198770;28;20566;-75
2021/08/11 09:58:39;;;;;;;10.48;3.25;;;25.30;87.10;;;;;;4198676;28;20056;-72
2021/08/11 10:00:43;;;;;;;8.95;3.00;;;25.50;85.80;;;;;;4197860;28;20053;-74
2021/08/11 10:03:02;;;;;;;9.30;3.50;;;25.30;86.40;;;;;;4197019;28;20110;-72
2021/08/11 10:05:07;;;;;;;6.88;2.90;;;25.40;86.40;;;;;;4197436;28;20079;-73
2021/08/11 10:07:10;;;;;;;13.18;3.22;;;25.50;86.90;;;;;;4198581;28;20068;-72
2021/08/11 10:09:18;;;;;;;7.03;3.47;;;25.30;85.10;;;;;;4199524;28;20052;-72
2021/08/11 10:11:36;;;;;;;9.38;3.55;;;25.40;86.20;;;;;;4186389;28;20053;-72
2021/08/11 10:13:41;;;;;;;10.70;3.17;;;25.40;85.70;;;;;;4183620;28;20056;-73
2021/08/11 10:15:44;;;;;;;;;;;25.70;86.30;;;;;;4183689;28;20057;-72
2021/08/11 10:17:51;;;;;;;32.42;3.35;;;25.60;85.20;;;;;;4182052;28;19921;-72
2021/08/11 10:19:54;;;;;;;11.70;3.47;;;25.60;84.30;;;;;;4181669;28;20504;-74
2021/08/11 10:21:59;;;;;;;19.63;4.18;;;25.60;84.80;;;;;;4181440;28;20114;-70
2021/08/11 10:24:04;;;;;;;13.55;3.42;;;25.50;85.10;;;;;;4184467;28;20079;-71
2021/08/11 10:26:08;;;;;;;11.48;2.97;;;25.50;85.30;;;;;;4184341;28;20049;-70
2021/08/11 10:28:11;;;;;;;13.57;3.38;;;25.50;85.80;;;;;;4195849;28;20141;-69
2021/08/11 10:30:19;;;;;;;11.35;3.63;;;25.60;85.70;;;;;;4191804;28;20056;-69
2021/08/11 10:32:23;;;;;;;8.57;3.50;;;25.60;85.10;;;;;;4197608;28;20057;-68
2021/08/11 10:34:31;;;;;;;7.90;3.20;;;25.60;85.20;;;;;;4197664;28;20061;-69
2021/08/11 10:36:36;;;;;;;8.00;3.30;;;25.80;85.10;;;;;;4197526;28;20055;-71
2021/08/11 10:38:43;;;;;;;11.85;3.47;;;25.70;84.00;;;;;;4196318;28;20574;-73
2021/08/11 10:40:52;;;;;;;12.40;4.20;;;25.70;85.20;;;;;;4197825;28;20064;-70
2021/08/11 10:42:57;;;;;;;11.45;3.47;;;26.00;86.30;;;;;;4197789;28;20048;-71
2021/08/11 10:45:01;;;;;;;10.50;3.47;;;26.00;83.90;;;;;;4197551;28;20052;-73
2021/08/11 10:47:08;;;;;;;9.38;3.55;;;26.10;84.30;;;;;;4197392;28;20057;-71